Time;durP1;ratioP1;P1;durP2;ratioP2;P2;SDS_P1;SDS_P2;PMS_P1;PMS_P2;Temp;Humidity;BMP_temperature;BMP_pressure;BME280_temperature;BME280_humidity;BME280_pressure;Samples;Min_cycle;Max_cycle;Signal;HPM_P1;HPM_P2
2021/12/29 00:01:50;;;;;;;5.35;4.80;;;;;;;1.73;79.19;98979.34;5070316;28;20043;-83
2021/12/29 00:04:18;;;;;;;5.93;4.55;;;;;;;1.74;78.74;98978.47;5051973;28;20080;-83
2021/12/29 00:06:47;;;;;;;6.75;4.47;;;;;;;1.71;79.27;98983.66;5038073;28;20035;-84
2021/12/29 00:09:12;;;;;;;4.70;4.30;;;;;;;1.74;78.99;98975.88;5070482;28;20020;-83
2021/12/29 00:11:40;;;;;;;5.05;4.57;;;;;;;1.65;79.16;98962.03;5070217;28;20031;-83
2021/12/29 00:14:07;;;;;;;4.90;4.43;;;;;;;1.67;79.11;98975.88;5042615;28;20016;-83
2021/12/29 00:16:38;;;;;;;5.43;4.57;;;;;;;1.74;79.08;98981.06;5064001;28;20027;-83
2021/12/29 00:19:05;;;;;;;5.28;4.78;;;;;;;1.76;78.99;98981.91;5056775;28;20017;-83
2021/12/29 00:21:34;;;;;;;4.57;4.13;;;;;;;1.74;78.78;98981.06;5047921;28;20099;-84
2021/12/29 00:24:00;;;;;;;5.57;3.97;;;;;;;1.76;78.77;98997.53;5077039;28;20079;-83
2021/12/29 00:26:26;;;;;;;4.97;4.13;;;;;;;1.75;78.86;98998.41;5044139;28;20020;-84
2021/12/29 00:28:52;;;;;;;5.30;4.40;;;;;;;1.76;78.95;98992.31;5039062;28;20111;-84
2021/12/29 00:31:21;;;;;;;7.18;5.25;;;;;;;1.74;78.72;98996.66;5051956;28;20107;-83
2021/12/29 00:33:46;;;;;;;4.47;4.00;;;;;;;1.75;79.06;99003.59;5055852;28;20031;-83
2021/12/29 00:36:11;;;;;;;5.18;4.28;;;;;;;1.75;78.80;99003.59;5068330;28;20072;-84
2021/12/29 00:38:40;;;;;;;4.50;4.10;;;;;;;1.76;78.48;99020.91;5052623;28;20031;-84
2021/12/29 00:41:08;;;;;;;5.38;4.07;;;;;;;1.75;78.56;99016.59;5050302;28;20017;-83
2021/12/29 00:43:34;;;;;;;5.72;4.25;;;;;;;1.77;78.46;99033.06;5070360;28;20086;-83
2021/12/29 00:45:59;;;;;;;4.25;3.70;;;;;;;1.75;78.48;99030.47;5074674;28;20496;-82
2021/12/29 00:48:34;;;;;;;4.68;3.80;;;;;;;1.76;78.80;99027.00;5075292;28;20496;-84
2021/12/29 00:50:59;;;;;;;5.47;4.28;;;;;;;1.70;78.57;99024.38;5071244;22;20025;-82
2021/12/29 00:53:25;;;;;;;4.53;4.07;;;;;;;1.78;78.83;99053.00;5051018;23;20052;-82
2021/12/29 00:55:51;;;;;;;5.25;3.95;;;;;;;1.77;78.53;99065.13;5073055;28;20089;-82
2021/12/29 00:58:16;;;;;;;4.63;3.92;;;;;;;1.76;78.81;99063.38;5057639;28;20034;-82
2021/12/29 01:00:42;;;;;;;3.90;3.50;;;;;;;1.78;78.64;99066.00;5055112;28;20024;-83
2021/12/29 01:03:10;;;;;;;4.28;3.80;;;;;;;1.78;78.60;99077.28;5056266;28;20103;-81
2021/12/29 01:05:37;;;;;;;4.60;3.50;;;;;;;1.80;78.81;99079.84;5055060;23;20049;-83
2021/12/29 01:08:04;;;;;;;3.75;3.45;;;;;;;1.78;78.54;99077.28;5021967;28;20035;-83
2021/12/29 01:10:30;;;;;;;4.07;3.70;;;;;;;1.81;78.69;99086.81;5071747;23;20052;-84
2021/12/29 01:13:01;;;;;;;4.97;4.03;;;;;;;1.77;78.62;99085.06;5036374;28;20100;-83
2021/12/29 01:15:32;;;;;;;3.88;3.58;;;;;;;1.79;78.57;99102.41;5022110;28;20080;-83
2021/12/29 01:18:01;;;;;;;4.10;3.55;;;;;;;1.81;78.77;99107.59;5030529;28;20080;-83
2021/12/29 01:20:26;;;;;;;3.60;3.30;;;;;;;1.79;78.74;99117.13;4996307;28;20445;-82
2021/12/29 01:22:57;;;;;;;3.92;3.22;;;;;;;1.81;78.55;99118.00;5030766;28;20057;-82
2021/12/29 01:25:22;;;;;;;3.97;3.67;;;;;;;1.81;78.52;99125.78;5027575;28;20046;-82
2021/12/29 01:27:48;;;;;;;4.95;3.85;;;;;;;1.79;78.39;99111.91;5022565;28;20307;-83
2021/12/29 01:30:16;;;;;;;4.65;3.45;;;;;;;1.78;78.67;99123.19;5044598;28;20026;-83
2021/12/29 01:32:47;;;;;;;3.97;3.53;;;;;;;1.77;78.60;99114.50;5009027;28;20516;-83
2021/12/29 01:35:13;;;;;;;3.83;3.53;;;;;;;1.71;78.74;99093.72;5038182;28;20368;-82
2021/12/29 01:37:39;;;;;;;5.13;3.63;;;;;;;1.79;78.49;99106.72;5021016;28;20069;-83
2021/12/29 01:40:10;;;;;;;4.95;3.67;;;;;;;1.80;78.35;99113.63;5030282;28;20072;-83
2021/12/29 01:42:36;;;;;;;4.68;3.42;;;;;;;1.80;78.59;99126.63;5037233;28;20029;-83
2021/12/29 01:45:03;;;;;;;6.88;3.83;;;;;;;1.79;78.64;99125.78;5020073;28;20034;-83
2021/12/29 01:47:30;;;;;;;4.18;3.60;;;;;;;1.83;78.45;99131.00;5024634;28;20017;-83
2021/12/29 01:49:56;;;;;;;5.38;3.42;;;;;;;1.82;78.71;99131.84;4993183;28;20507;-83
2021/12/29 01:52:28;;;;;;;3.72;3.40;;;;;;;1.79;78.67;99133.59;5036662;28;20029;-83
2021/12/29 01:54:53;;;;;;;3.75;3.40;;;;;;;1.83;78.19;99136.19;5016639;28;20022;-83
2021/12/29 01:57:19;;;;;;;4.05;3.65;;;;;;;1.79;78.43;99138.78;5032139;28;20028;-83
2021/12/29 01:59:45;;;;;;;5.05;3.63;;;;;;;1.81;78.31;99144.00;5015851;28;20033;-83
2021/12/29 02:02:14;;;;;;;4.93;3.42;;;;;;;1.80;78.35;99137.03;5034848;28;20026;-83
2021/12/29 02:04:43;;;;;;;4.18;3.78;;;;;;;1.78;78.55;99138.78;4999091;28;20057;-83
2021/12/29 02:07:08;;;;;;;4.40;3.30;;;;;;;1.76;78.53;99141.38;5032259;28;20028;-83
2021/12/29 02:09:34;;;;;;;3.92;3.35;;;;;;;1.84;78.34;99163.94;5041805;28;20424;-83
2021/12/29 02:11:59;;;;;;;4.00;3.60;;;;;;;1.82;78.27;99163.91;5018355;28;20025;-83
2021/12/29 02:14:24;;;;;;;4.38;3.63;;;;;;;1.82;78.14;99174.31;5000787;28;20041;-84
2021/12/29 02:16:59;;;;;;;4.75;3.22;;;;;;;1.82;78.36;99181.25;5025418;28;20407;-83
2021/12/29 02:19:26;;;;;;;3.88;3.28;;;;;;;1.84;78.50;99183.00;5024927;28;20032;-82
2021/12/29 02:22:00;;;;;;;3.60;3.15;;;;;;;1.80;78.03;99189.03;5019476;28;20463;-83
2021/12/29 02:24:36;;;;;;;3.95;3.35;;;;;;;1.79;78.04;99189.91;5024750;28;20026;-83
2021/12/29 02:27:03;;;;;;;5.40;3.03;;;;;;;1.84;78.34;99203.81;5029618;28;20076;-83
2021/12/29 02:29:31;;;;;;;4.30;3.10;;;;;;;1.78;78.49;99198.59;5022193;28;20026;-83
2021/12/29 02:31:56;;;;;;;4.90;3.47;;;;;;;1.82;78.54;99197.72;5036004;28;20033;-83
2021/12/29 02:34:22;;;;;;;4.03;3.60;;;;;;;1.79;78.78;99198.59;5012544;28;20022;-82
2021/12/29 02:36:47;;;;;;;6.38;3.75;;;;;;;1.82;78.44;99207.25;5025694;28;20031;-83
2021/12/29 02:39:17;;;;;;;4.18;3.35;;;;;;;1.83;78.56;99209.00;4991050;28;20467;-82
2021/12/29 02:41:46;;;;;;;3.67;3.35;;;;;;;1.81;78.21;99211.59;4986558;28;20018;-82
2021/12/29 02:44:17;;;;;;;3.67;3.35;;;;;;;1.84;78.16;99221.13;5039422;28;20068;-82
2021/12/29 02:46:43;;;;;;;4.47;3.60;;;;;;;1.83;78.51;99233.25;4997355;28;20021;-83
2021/12/29 02:49:09;;;;;;;3.47;3.17;;;;;;;1.84;78.20;99224.59;5031559;28;20373;-84
2021/12/29 02:51:34;;;;;;;3.65;3.13;;;;;;;1.77;78.58;99215.06;5015916;28;20026;-83
2021/12/29 02:54:02;;;;;;;3.80;3.35;;;;;;;1.84;78.43;99227.22;5031356;28;20076;-83
2021/12/29 02:56:28;;;;;;;3.88;3.33;;;;;;;1.85;78.33;99243.66;4988261;28;20026;-83
2021/12/29 02:58:54;;;;;;;3.53;3.20;;;;;;;1.83;78.51;99254.06;5012823;28;20045;-83
2021/12/29 03:01:20;;;;;;;3.60;3.30;;;;;;;1.84;78.58;99250.63;5017945;28;20388;-83
2021/12/29 03:03:45;;;;;;;4.32;3.00;;;;;;;1.82;78.48;99254.91;4995402;28;20022;-82
2021/12/29 03:06:11;;;;;;;3.78;3.47;;;;;;;1.84;78.47;99258.41;5006294;28;20029;-83
2021/12/29 03:08:37;;;;;;;3.65;3.22;;;;;;;1.83;78.49;99261.00;5015588;28;20025;-83
2021/12/29 03:11:04;;;;;;;3.58;3.28;;;;;;;1.86;78.58;99261.88;5010748;28;20032;-82
2021/12/29 03:13:34;;;;;;;3.75;3.40;;;;;;;1.84;78.45;99257.53;4985389;28;20395;-83
2021/12/29 03:15:59;;;;;;;3.35;2.90;;;;;;;1.85;78.54;99260.13;5014361;28;20391;-83
2021/12/29 03:18:25;;;;;;;4.72;3.50;;;;;;;1.85;78.10;99262.75;5025922;28;20034;-83
2021/12/29 03:20:50;;;;;;;3.03;2.75;;;;;;;1.83;78.34;99263.59;5021437;28;20189;-82
2021/12/29 03:23:17;;;;;;;3.53;2.88;;;;;;;1.85;78.45;99275.75;5016339;28;20124;-83
2021/12/29 03:25:42;;;;;;;4.05;3.13;;;;;;;1.83;78.29;99287.84;5019815;28;20022;-83
2021/12/29 03:28:08;;;;;;;3.83;2.85;;;;;;;1.84;78.25;99283.53;5024232;28;20080;-83
2021/12/29 03:30:39;;;;;;;3.75;3.20;;;;;;;1.85;78.47;99275.75;5028872;28;20030;-83
2021/12/29 03:33:07;;;;;;;3.38;3.08;;;;;;;1.83;78.31;99282.66;4996215;28;20021;-83
2021/12/29 03:35:38;;;;;;;4.63;3.40;;;;;;;1.83;78.27;99285.25;5033037;28;20034;-83
2021/12/29 03:38:07;;;;;;;3.88;2.78;;;;;;;1.84;78.50;99288.72;5026079;28;20049;-83
2021/12/29 03:40:35;;;;;;;4.78;2.97;;;;;;;1.83;78.36;99287.84;5028355;28;21453;-84
2021/12/29 03:43:05;;;;;;;3.60;3.15;;;;;;;1.84;78.59;99292.22;5031226;28;20022;-84
2021/12/29 03:45:31;;;;;;;3.42;2.78;;;;;;;1.86;78.43;99297.38;5005379;28;20057;-83
2021/12/29 03:47:56;;;;;;;4.38;3.03;;;;;;;1.83;78.50;99298.25;5030441;28;20021;-84
2021/12/29 03:50:21;;;;;;;4.93;3.03;;;;;;;1.84;78.41;99306.94;5023644;28;20038;-84
2021/12/29 03:52:47;;;;;;;4.03;3.67;;;;;;;1.86;78.53;99313.88;5033957;28;20144;-84
2021/12/29 03:55:15;;;;;;;3.67;3.17;;;;;;;1.85;78.50;99312.13;5020817;28;20014;-84
2021/12/29 03:57:41;;;;;;;4.03;3.03;;;;;;;1.85;78.56;99312.13;5012185;28;20053;-83
2021/12/29 04:00:22;;;;;;;3.65;3.35;;;;;;;1.82;78.17;99309.53;4986014;28;20026;-82
2021/12/29 04:02:51;;;;;;;3.88;3.53;;;;;;;1.83;78.54;99318.19;5020420;28;20026;-83
2021/12/29 04:05:19;;;;;;;4.50;3.67;;;;;;;1.85;78.30;99332.06;5028748;28;20030;-83
2021/12/29 04:07:45;;;;;;;3.00;2.63;;;;;;;1.83;78.51;99332.06;5012737;28;20176;-83
2021/12/29 04:10:11;;;;;;;3.33;3.03;;;;;;;1.85;78.55;99340.75;4997459;28;20506;-84
2021/12/29 04:12:42;;;;;;;4.18;3.15;;;;;;;1.84;78.37;99340.72;5006578;28;20026;-83
2021/12/29 04:15:10;;;;;;;;;;;;;;;1.86;78.51;99345.06;5024593;28;20026;-83
2021/12/29 04:17:36;;;;;;;3.42;2.97;;;;;;;1.84;78.57;99341.63;5020251;28;19910;-84
2021/12/29 04:22:50;;;;;;;4.13;3.15;;;;;;;1.84;78.61;99346.81;5013807;28;20082;-83
2021/12/29 04:25:15;;;;;;;3.47;2.95;;;;;;;1.84;78.58;99349.41;5027843;28;20121;-84
2021/12/29 04:27:41;;;;;;;4.05;3.00;;;;;;;1.84;78.88;99345.94;5010122;28;20022;-83
2021/12/29 04:30:06;;;;;;;2.75;2.50;;;;;;;1.85;78.50;99338.16;5026996;28;20026;-84
2021/12/29 04:32:32;;;;;;;2.90;2.60;;;;;;;1.82;78.34;99327.72;5014840;28;20018;-83
2021/12/29 04:35:00;;;;;;;3.72;3.10;;;;;;;1.85;78.45;99335.53;5011575;28;20022;-83
2021/12/29 04:37:28;;;;;;;3.28;2.75;;;;;;;1.82;78.49;99345.91;5042548;28;20025;-84
2021/12/29 04:39:54;;;;;;;3.40;3.10;;;;;;;1.86;78.43;99354.59;5038112;28;20082;-84
2021/12/29 04:42:19;;;;;;;3.40;3.10;;;;;;;1.82;78.48;99363.25;5030059;28;20081;-84
2021/12/29 04:44:47;;;;;;;3.35;2.95;;;;;;;1.85;78.40;99364.16;5023278;28;20033;-84
2021/12/29 04:47:13;;;;;;;3.05;2.80;;;;;;;1.85;78.73;99364.16;5030834;28;20025;-83
2021/12/29 04:49:42;;;;;;;4.47;3.78;;;;;;;1.86;78.75;99370.19;5024239;28;20105;-84
2021/12/29 04:52:10;;;;;;;3.20;2.88;;;;;;;1.87;78.27;99379.75;5035890;28;20419;-83
2021/12/29 04:54:36;;;;;;;4.63;3.30;;;;;;;1.88;78.37;99376.28;4993950;28;20033;-84
2021/12/29 04:57:02;;;;;;;2.90;2.70;;;;;;;1.84;78.50;99371.94;5002078;28;20022;-83
2021/12/29 04:59:28;;;;;;;2.88;2.67;;;;;;;1.87;78.76;99380.59;5026749;28;20022;-83
2021/12/29 05:01:53;;;;;;;3.30;3.00;;;;;;;1.87;78.58;99382.34;5015510;28;20040;-84
2021/12/29 05:04:29;;;;;;;3.63;3.05;;;;;;;1.84;78.46;99384.94;5035570;28;20037;-83
2021/12/29 05:09:39;;;;;;;3.20;2.90;;;;;;;1.88;78.44;99395.38;5034421;28;20037;-84
2021/12/29 05:12:05;;;;;;;3.47;3.17;;;;;;;1.87;78.69;99397.97;5031997;28;20022;-84
2021/12/29 05:14:30;;;;;;;3.00;2.72;;;;;;;1.87;78.72;99403.16;5024448;28;20061;-83
2021/12/29 05:16:56;;;;;;;4.03;3.35;;;;;;;1.87;78.62;99398.81;5025748;28;20458;-83
2021/12/29 05:19:22;;;;;;;2.97;2.75;;;;;;;1.87;78.55;99406.59;5029855;28;20029;-83
2021/12/29 05:21:50;;;;;;;3.28;2.70;;;;;;;1.89;78.34;99412.72;5026719;28;20682;-83
2021/12/29 05:24:16;;;;;;;4.15;3.13;;;;;;;1.83;78.78;99402.25;5027932;28;20059;-83
2021/12/29 05:26:44;;;;;;;3.03;2.75;;;;;;;1.87;78.63;99404.00;5022020;28;20109;-83
2021/12/29 05:29:09;;;;;;;4.22;3.35;;;;;;;1.87;78.71;99401.41;5032211;28;20546;-84
2021/12/29 05:31:35;;;;;;;2.75;2.55;;;;;;;1.87;78.81;99398.81;5030236;28;20034;-84
2021/12/29 05:34:00;;;;;;;3.17;2.83;;;;;;;1.89;78.57;99412.72;5013197;28;20037;-84
2021/12/29 05:36:26;;;;;;;3.25;2.97;;;;;;;1.89;78.65;99412.72;5015537;28;20030;-84
2021/12/29 05:38:56;;;;;;;3.45;3.15;;;;;;;1.87;78.42;99408.34;5030793;28;20434;-83
2021/12/29 05:41:25;;;;;;;4.00;3.22;;;;;;;1.89;78.53;99423.09;4990183;28;20053;-84
2021/12/29 05:43:50;;;;;;;3.63;2.95;;;;;;;1.82;78.34;99415.25;4999003;28;20018;-84
2021/12/29 05:46:21;;;;;;;3.10;2.78;;;;;;;1.88;78.42;99434.38;5031706;28;20032;-84
2021/12/29 05:48:58;;;;;;;5.32;2.78;;;;;;;1.87;78.54;99432.63;5022228;28;20529;-83
2021/12/29 05:51:23;;;;;;;3.03;2.72;;;;;;;1.88;78.47;99439.56;5030231;28;20030;-84
2021/12/29 05:53:50;;;;;;;3.40;3.10;;;;;;;1.88;78.44;99442.19;5020281;28;20030;-84
2021/12/29 05:56:15;;;;;;;3.15;2.85;;;;;;;1.90;78.40;99450.00;5015550;28;20597;-84
2021/12/29 05:58:40;;;;;;;3.58;3.13;;;;;;;1.88;78.68;99451.69;4991332;28;20044;-84
2021/12/29 06:01:06;;;;;;;4.07;3.42;;;;;;;1.90;78.62;99457.78;4999764;28;20030;-82
2021/12/29 06:03:34;;;;;;;5.65;3.25;;;;;;;1.86;78.87;99462.09;5015132;28;20033;-84
2021/12/29 06:06:00;;;;;;;4.68;3.38;;;;;;;1.89;78.73;99463.81;5041419;28;20037;-83
2021/12/29 06:08:25;;;;;;;3.45;3.15;;;;;;;1.88;78.45;99465.59;5037344;28;20045;-84
2021/12/29 06:10:53;;;;;;;3.40;2.80;;;;;;;1.88;78.85;99468.19;4995806;28;20041;-84
2021/12/29 06:13:19;;;;;;;3.60;3.30;;;;;;;1.90;78.82;99476.00;5015590;28;20029;-84
2021/12/29 06:15:44;;;;;;;3.47;3.03;;;;;;;1.89;78.76;99479.44;5032180;28;20022;-84
2021/12/29 06:18:09;;;;;;;3.53;3.22;;;;;;;1.90;78.41;99481.19;5015655;28;20111;-84
2021/12/29 06:20:38;;;;;;;3.40;3.10;;;;;;;1.89;78.59;99475.13;5000090;28;20125;-82
2021/12/29 06:23:05;;;;;;;3.53;2.70;;;;;;;1.91;78.52;99483.78;5040683;28;20033;-84
2021/12/29 06:25:31;;;;;;;3.40;3.10;;;;;;;1.90;78.54;99484.66;5026762;28;20466;-84
2021/12/29 06:27:56;;;;;;;3.05;2.72;;;;;;;1.88;78.36;99491.59;5014431;28;20029;-84
2021/12/29 06:30:21;;;;;;;5.25;3.35;;;;;;;1.91;78.73;99491.59;5018083;28;20041;-84
2021/12/29 06:32:49;;;;;;;2.83;2.45;;;;;;;1.89;78.83;99500.25;5032498;28;20026;-84
2021/12/29 06:35:14;;;;;;;3.47;2.85;;;;;;;1.92;78.53;99501.16;5015181;28;20172;-84
2021/12/29 06:37:46;;;;;;;3.92;2.90;;;;;;;1.88;78.56;99489.00;5013517;28;20041;-83
2021/12/29 06:40:13;;;;;;;4.10;3.13;;;;;;;1.92;78.46;99511.56;4991463;28;20054;-83
2021/12/29 06:42:38;;;;;;;3.78;3.38;;;;;;;1.91;78.29;99509.78;4996901;28;20044;-83
2021/12/29 06:45:05;;;;;;;3.45;3.15;;;;;;;1.93;78.46;99512.41;5011732;28;20499;-82
2021/12/29 06:47:30;;;;;;;3.25;2.95;;;;;;;1.91;78.50;99525.38;5014558;28;20455;-83
2021/12/29 06:49:55;;;;;;;5.03;3.85;;;;;;;1.91;78.55;99528.00;5028709;28;20026;-84
2021/12/29 06:52:24;;;;;;;4.10;3.50;;;;;;;1.92;78.67;99531.47;5018601;28;20064;-84
2021/12/29 06:54:49;;;;;;;3.75;3.40;;;;;;;1.92;78.62;99531.47;5025119;28;20033;-84
2021/12/29 06:57:15;;;;;;;4.55;3.35;;;;;;;1.92;78.50;99542.75;5008344;28;20025;-83
2021/12/29 07:00:12;;;;;;;3.72;3.22;;;;;;;1.94;78.68;99554.91;5035084;28;20044;-83
2021/12/29 07:02:37;;;;;;;3.70;3.25;;;;;;;1.91;78.38;99553.16;5027577;28;20022;-84
2021/12/29 07:05:03;;;;;;;3.45;2.95;;;;;;;1.93;78.46;99556.63;5032396;28;20033;-84
2021/12/29 07:07:28;;;;;;;4.47;3.80;;;;;;;1.94;78.61;99560.09;5022730;28;20038;-86
2021/12/29 07:09:57;;;;;;;3.60;2.95;;;;;;;1.88;78.68;99554.00;5004981;28;20108;-84
2021/12/29 07:12:25;;;;;;;4.25;3.50;;;;;;;1.91;78.54;99555.75;5025892;28;20073;-86
2021/12/29 07:14:50;;;;;;;4.25;3.28;;;;;;;1.91;78.57;99567.00;5029004;28;20113;-86
2021/12/29 07:17:16;;;;;;;4.32;3.70;;;;;;;1.94;78.35;99571.38;5026632;28;20022;-85
2021/12/29 07:19:41;;;;;;;5.07;3.15;;;;;;;1.93;78.44;99569.63;5028696;28;20506;-84
2021/12/29 07:22:10;;;;;;;4.00;3.50;;;;;;;1.91;78.68;99566.16;5011988;28;20029;-85
2021/12/29 07:24:35;;;;;;;4.78;3.08;;;;;;;1.94;78.33;99560.09;5013158;28;20669;-84
2021/12/29 07:27:01;;;;;;;3.78;3.40;;;;;;;1.94;78.43;99571.38;5011703;28;20088;-85
2021/12/29 07:29:38;;;;;;;4.35;3.22;;;;;;;1.92;78.56;99576.56;5005055;28;20125;-85
2021/12/29 07:32:04;;;;;;;3.40;3.08;;;;;;;1.94;78.56;99575.69;5016500;28;20084;-85
2021/12/29 07:34:32;;;;;;;4.93;3.40;;;;;;;1.95;78.44;99582.63;4991495;28;20022;-85
2021/12/29 07:36:58;;;;;;;4.13;3.67;;;;;;;1.95;78.60;99586.13;5031470;28;20488;-84
2021/12/29 07:39:24;;;;;;;4.35;3.60;;;;;;;1.96;78.46;99589.59;5018193;28;20546;-85
2021/12/29 07:41:49;;;;;;;3.70;3.40;;;;;;;1.96;78.32;99589.59;5027400;28;20022;-86
2021/12/29 07:44:17;;;;;;;4.10;3.30;;;;;;;1.95;78.44;99593.03;5028270;28;20022;-81
2021/12/29 07:46:44;;;;;;;4.18;3.50;;;;;;;1.96;78.32;99602.59;5014101;28;20134;-84
2021/12/29 07:49:09;;;;;;;4.72;3.33;;;;;;;1.95;78.43;99603.44;5032888;28;20102;-85
2021/12/29 07:51:35;;;;;;;4.40;3.35;;;;;;;1.97;78.32;99612.16;5031468;28;20049;-84
2021/12/29 07:54:00;;;;;;;4.38;3.13;;;;;;;1.95;78.35;99608.63;5031119;28;20135;-86
2021/12/29 07:56:26;;;;;;;4.32;2.97;;;;;;;1.95;78.44;99619.94;5027141;28;20026;-83
2021/12/29 07:58:51;;;;;;;4.13;3.53;;;;;;;1.97;78.60;99620.78;5034259;28;20026;-84
2021/12/29 08:01:17;;;;;;;4.07;3.67;;;;;;;1.98;78.33;99634.69;5041150;23;20384;-82
2021/12/29 08:03:42;;;;;;;5.05;3.80;;;;;;;1.98;78.51;99640.75;5087241;22;20067;-84
2021/12/29 08:06:08;;;;;;;4.90;3.38;;;;;;;1.98;78.73;99645.09;5023060;28;20429;-82
2021/12/29 08:08:33;;;;;;;4.70;3.55;;;;;;;1.98;78.68;99643.38;5024629;28;20039;-84
2021/12/29 08:11:00;;;;;;;4.05;3.63;;;;;;;1.98;78.52;99660.69;5024208;28;21354;-83
2021/12/29 08:13:27;;;;;;;5.88;3.35;;;;;;;2.00;78.98;99666.78;5008842;28;20037;-83
2021/12/29 08:15:54;;;;;;;5.07;3.42;;;;;;;1.99;78.77;99676.31;5017867;28;20028;-83
2021/12/29 08:18:22;;;;;;;5.38;3.85;;;;;;;1.97;79.16;99670.22;5036841;28;20052;-83
2021/12/29 08:20:48;;;;;;;3.60;3.15;;;;;;;2.00;78.99;99679.81;5015062;28;20052;-82
2021/12/29 08:23:13;;;;;;;4.70;3.78;;;;;;;1.98;78.89;99677.19;5040069;28;20621;-83
2021/12/29 08:25:39;;;;;;;3.58;3.20;;;;;;;2.01;79.02;99681.53;5054525;22;20068;-83
2021/12/29 08:28:04;;;;;;;3.45;2.85;;;;;;;1.99;79.00;99684.13;5016883;28;20166;-83
2021/12/29 08:30:36;;;;;;;4.60;3.30;;;;;;;2.01;79.20;99684.13;5037311;28;20518;-83
2021/12/29 08:33:04;;;;;;;4.13;3.65;;;;;;;2.01;79.03;99686.75;5016516;28;20025;-83
2021/12/29 08:35:30;;;;;;;3.28;2.97;;;;;;;1.99;79.19;99683.22;5018299;28;20060;-83
2021/12/29 08:37:56;;;;;;;3.35;3.05;;;;;;;2.02;78.90;99683.28;5022482;28;20414;-83
2021/12/29 08:40:23;;;;;;;3.47;2.90;;;;;;;2.02;78.83;99688.47;5015884;28;20501;-83
2021/12/29 08:42:48;;;;;;;3.50;3.03;;;;;;;1.99;78.98;99689.31;5021693;28;20028;-83
2021/12/29 08:45:15;;;;;;;3.88;3.50;;;;;;;2.02;78.97;99696.28;5018417;28;20030;-83
2021/12/29 08:47:40;;;;;;;4.50;3.40;;;;;;;2.02;78.99;99693.69;5008638;28;20028;-83
2021/12/29 08:50:15;;;;;;;3.70;3.40;;;;;;;2.02;79.13;99697.16;5036851;28;20016;-83
2021/12/29 08:52:41;;;;;;;3.53;3.25;;;;;;;2.01;79.47;99694.53;5022107;28;20029;-83
2021/12/29 08:55:08;;;;;;;3.78;3.25;;;;;;;2.03;79.29;99700.63;5033506;28;20040;-83
2021/12/29 08:57:33;;;;;;;3.97;2.85;;;;;;;2.02;79.24;99704.97;5022821;28;20035;-83
2021/12/29 08:59:59;;;;;;;3.55;3.25;;;;;;;2.03;79.12;99703.22;5016935;28;20449;-83
2021/12/29 09:02:27;;;;;;;3.53;2.90;;;;;;;2.05;79.12;99711.91;5016634;28;20063;-83
2021/12/29 09:04:52;;;;;;;3.25;2.40;;;;;;;2.05;78.97;99715.41;5012293;28;20032;-83
2021/12/29 09:07:21;;;;;;;4.10;3.70;;;;;;;2.02;79.02;99719.69;5019133;28;20029;-83
2021/12/29 09:09:46;;;;;;;3.88;3.42;;;;;;;2.04;79.25;99725.78;5038503;28;20025;-83
2021/12/29 09:12:11;;;;;;;4.80;3.53;;;;;;;2.03;78.77;99722.31;5021940;28;20099;-84
2021/12/29 09:14:37;;;;;;;3.60;3.08;;;;;;;2.05;79.24;99735.34;5024201;28;20040;-84
2021/12/29 09:17:02;;;;;;;3.80;3.03;;;;;;;2.05;78.82;99731.00;5018674;28;20029;-84
2021/12/29 09:19:30;;;;;;;3.03;2.72;;;;;;;2.03;78.74;99734.44;5018669;28;20028;-83
2021/12/29 09:21:56;;;;;;;3.95;3.35;;;;;;;2.04;79.27;99733.59;5018843;28;20032;-83
2021/12/29 09:24:21;;;;;;;4.22;3.08;;;;;;;2.05;79.03;99736.22;5017112;28;20029;-83
2021/12/29 09:26:47;;;;;;;4.47;3.40;;;;;;;2.05;79.16;99741.41;5014294;28;20094;-83
2021/12/29 09:29:12;;;;;;;3.72;3.00;;;;;;;2.04;79.12;99739.66;5023749;28;20592;-83
2021/12/29 09:31:37;;;;;;;3.40;3.00;;;;;;;2.05;79.00;99744.03;5019989;28;20064;-83
2021/12/29 09:34:03;;;;;;;3.38;3.08;;;;;;;2.06;79.08;99750.06;5019925;28;20047;-83
2021/12/29 09:36:28;;;;;;;3.58;3.17;;;;;;;2.06;78.77;99752.69;5022712;28;20505;-82
2021/12/29 09:38:53;;;;;;;3.97;3.17;;;;;;;2.08;79.11;99756.19;5058292;28;20478;-83
2021/12/29 10:22:41;;;;;;;3.55;3.22;;;;;;;2.07;79.34;99750.97;4992073;28;20034;-89
2021/12/29 10:25:10;;;;;;;3.63;3.15;;;;;;;2.12;79.38;99762.28;4977216;28;20092;-89
2021/12/29 10:28:15;;;;;;;3.28;2.80;;;;;;;2.14;79.28;99771.00;4979878;28;20629;-89
2021/12/29 10:30:40;;;;;;;4.57;3.33;;;;;;;2.11;79.33;99766.63;4989692;28;20023;-89
2021/12/29 10:33:11;;;;;;;4.22;3.83;;;;;;;2.12;79.10;99772.69;4977163;28;20041;-90
2021/12/29 10:35:36;;;;;;;3.97;3.40;;;;;;;2.14;79.39;99782.25;4974184;28;20357;-89
2021/12/29 10:38:14;;;;;;;4.13;3.47;;;;;;;2.13;79.18;99767.50;4975885;28;20026;-89
2021/12/29 10:40:40;;;;;;;5.00;4.05;;;;;;;2.16;79.17;99779.66;4976487;28;20030;-89
2021/12/29 10:43:05;;;;;;;3.95;3.38;;;;;;;2.13;79.28;99780.50;4965573;28;20027;-89
2021/12/29 10:45:54;;;;;;;3.90;3.53;;;;;;;2.17;78.96;99786.63;4985012;28;20030;-90
2021/12/29 10:48:22;;;;;;;4.38;3.85;;;;;;;2.17;79.24;99795.28;4973618;28;20041;-89
2021/12/29 10:50:53;;;;;;;4.40;3.97;;;;;;;2.17;79.21;99794.44;4976107;28;20042;-90
2021/12/29 10:53:22;;;;;;;;;;;;;;;2.18;79.24;99799.66;4991483;28;20026;-90
2021/12/29 10:55:47;;;;;;;4.35;3.92;;;;;;;2.14;79.40;99800.47;4974319;28;20299;-89
2021/12/29 10:58:25;;;;;;;5.40;4.22;;;;;;;2.15;79.11;99799.63;4986458;28;20030;-89
2021/12/29 11:00:59;;;;;;;4.75;4.00;;;;;;;2.13;79.26;99798.72;4971150;28;20476;-90
2021/12/29 11:03:25;;;;;;;5.10;4.45;;;;;;;2.14;79.31;99799.59;4974949;28;20104;-89
2021/12/29 11:05:58;;;;;;;6.28;4.10;;;;;;;2.09;79.16;99791.75;4975555;28;20026;-90
2021/12/29 11:08:52;;;;;;;5.43;4.63;;;;;;;2.16;79.37;99803.97;4976382;28;20109;-89
2021/12/29 11:11:37;;;;;;;5.47;4.68;;;;;;;2.19;78.98;99808.31;4989056;28;20092;-90
2021/12/29 11:14:15;;;;;;;5.28;4.78;;;;;;;2.18;79.34;99817.88;4974440;28;20026;-89
2021/12/29 11:16:44;;;;;;;6.07;4.78;;;;;;;2.14;79.21;99813.47;4973727;28;20033;-90
2021/12/29 11:19:09;;;;;;;5.07;4.50;;;;;;;2.11;78.90;99821.25;4974560;28;20113;-90
2021/12/29 11:21:40;;;;;;;6.22;5.22;;;;;;;2.14;79.20;99836.88;4973457;28;20113;-91
2021/12/29 11:24:25;;;;;;;6.22;4.80;;;;;;;2.17;78.95;99823.91;4975764;28;20029;-90
2021/12/29 11:26:51;;;;;;;6.15;5.55;;;;;;;2.18;79.14;99823.09;4974563;28;20113;-90
2021/12/29 11:29:19;;;;;;;5.35;4.30;;;;;;;2.14;79.06;99803.06;4969727;28;20165;-90
2021/12/29 11:32:00;;;;;;;6.97;4.75;;;;;;;2.17;79.20;99813.50;4986835;28;20026;-91
2021/12/29 11:34:29;;;;;;;5.68;4.25;;;;;;;2.18;79.62;99819.59;4976893;28;20058;-91
2021/12/29 11:37:11;;;;;;;5.90;4.90;;;;;;;2.14;79.29;99820.41;4977254;28;20038;-91
2021/12/29 11:39:48;;;;;;;5.22;4.55;;;;;;;2.21;78.84;99829.16;4977096;28;20041;-91
2021/12/29 11:42:15;;;;;;;4.65;4.15;;;;;;;2.16;79.49;99827.38;4976939;28;20030;-91
2021/12/29 11:44:40;;;;;;;5.63;4.80;;;;;;;2.18;79.05;99820.47;4976848;28;20085;-90
2021/12/29 11:47:07;;;;;;;5.68;4.35;;;;;;;2.17;79.29;99812.66;4971382;28;20436;-90
2021/12/29 11:49:32;;;;;;;7.32;4.55;;;;;;;2.19;79.03;99821.34;4975958;28;20026;-90
2021/12/29 11:52:09;;;;;;;5.70;5.05;;;;;;;2.28;79.18;99841.38;4975793;28;20018;-90
2021/12/29 11:55:02;;;;;;;6.53;4.85;;;;;;;2.30;79.10;99850.06;4975873;28;20027;-90
2021/12/29 11:57:28;;;;;;;4.82;4.40;;;;;;;2.21;79.27;99834.38;4971738;28;20034;-90
2021/12/29 12:00:05;;;;;;;6.35;4.85;;;;;;;2.19;79.48;99831.75;4975544;28;20472;-90
2021/12/29 12:02:31;;;;;;;6.63;4.32;;;;;;;2.26;79.15;99838.75;4973236;28;20118;-90
2021/12/29 12:05:02;;;;;;;6.03;4.85;;;;;;;2.27;79.39;99837.91;4972020;28;20033;-90
2021/12/29 12:07:28;;;;;;;5.85;4.90;;;;;;;2.17;79.14;99808.31;4975087;28;20043;-89
2021/12/29 12:09:53;;;;;;;6.25;5.63;;;;;;;2.18;79.25;99798.78;4974810;28;20053;-90
2021/12/29 12:12:19;;;;;;;4.90;4.40;;;;;;;2.32;79.27;99832.75;4975482;28;20023;-90
2021/12/29 12:14:47;;;;;;;6.57;4.97;;;;;;;2.23;79.08;99814.44;4969805;28;20018;-90
2021/12/29 12:17:18;;;;;;;6.68;4.82;;;;;;;2.25;79.67;99820.53;4973844;28;20085;-90
2021/12/29 12:19:45;;;;;;;5.15;4.65;;;;;;;2.31;79.07;99831.03;4973708;28;20066;-89
2021/12/29 12:22:18;;;;;;;6.20;4.70;;;;;;;2.29;79.51;99814.50;4968736;28;20511;-89
2021/12/29 12:24:49;;;;;;;5.57;5.00;;;;;;;2.34;79.06;99811.97;4989354;28;20030;-90
2021/12/29 12:27:24;;;;;;;;;;;;;;;2.34;79.31;99809.34;4985278;28;20026;-90
2021/12/29 12:30:00;;;;;;;7.60;4.60;;;;;;;2.30;78.93;99808.44;4975400;28;19913;-90
2021/12/29 12:32:25;;;;;;;7.18;5.35;;;;;;;2.28;79.09;99813.66;4988888;28;20030;-89